createdAt,value
2022-12-03T00:01:57.148Z,26.88
2022-12-03T00:04:24.215Z,26.23
2022-12-03T00:06:51.251Z,21.38
2022-12-03T00:09:18.410Z,23.45
2022-12-03T00:11:45.414Z,23.48
2022-12-03T00:14:12.573Z,26.27
2022-12-03T00:16:39.626Z,24.38
2022-12-03T00:19:07.746Z,24.55
2022-12-03T00:21:35.203Z,22.20
2022-12-03T00:24:02.180Z,24.42
2022-12-03T00:26:29.112Z,24.70
2022-12-03T00:28:57.692Z,24.08
2022-12-03T00:31:25.514Z,27.17
2022-12-03T00:33:52.854Z,23.60
2022-12-03T00:36:20.039Z,26.50
2022-12-03T00:38:47.131Z,25.33
2022-12-03T00:41:14.297Z,26.70
2022-12-03T00:43:41.235Z,26.80
2022-12-03T00:46:08.153Z,26.85
2022-12-03T00:48:35.257Z,26.98
2022-12-03T00:51:02.269Z,29.23
2022-12-03T00:53:29.256Z,25.85
2022-12-03T00:55:56.200Z,29.73
2022-12-03T00:58:24.004Z,25.92
2022-12-03T01:00:50.956Z,28.02
2022-12-03T01:03:17.900Z,29.15
2022-12-03T01:05:44.858Z,28.65
2022-12-03T01:08:11.986Z,27.67
2022-12-03T01:10:39.794Z,28.83
2022-12-03T01:13:06.768Z,31.13
2022-12-03T01:15:34.005Z,30.08
2022-12-03T01:18:01.116Z,26.48
2022-12-03T01:20:28.184Z,28.15
2022-12-03T01:22:55.160Z,28.15
2022-12-03T01:25:22.255Z,29.63
2022-12-03T01:27:50.957Z,28.20
2022-12-03T01:30:17.969Z,29.92
2022-12-03T01:32:44.990Z,33.28
2022-12-03T01:35:11.936Z,30.02
2022-12-03T01:37:38.884Z,30.23
2022-12-03T01:40:08.212Z,29.00
2022-12-03T01:42:39.796Z,28.42
2022-12-03T01:45:11.198Z,26.63
2022-12-03T01:47:38.491Z,28.63
2022-12-03T01:50:07.566Z,27.80
2022-12-03T01:52:38.506Z,31.58
2022-12-03T01:55:11.966Z,26.73
2022-12-03T01:57:45.875Z,27.95
2022-12-03T02:00:21.999Z,28.60
2022-12-03T02:02:53.414Z,27.00
2022-12-03T02:05:26.977Z,29.85
2022-12-03T02:07:54.691Z,28.58
2022-12-03T02:10:27.964Z,29.38
2022-12-03T02:12:57.127Z,28.60
2022-12-03T02:15:24.674Z,26.77
2022-12-03T02:17:52.192Z,30.08
2022-12-03T02:20:19.621Z,29.38
2022-12-03T02:23:20.865Z,30.00
2022-12-03T02:25:47.852Z,26.60
2022-12-03T02:28:14.891Z,26.42
2022-12-03T02:30:41.868Z,26.80
2022-12-03T02:33:08.797Z,27.70
2022-12-03T02:35:37.137Z,26.20
2022-12-03T02:38:10.259Z,29.95
2022-12-03T02:40:37.743Z,28.05
2022-12-03T02:43:05.858Z,29.13
2022-12-03T02:45:42.741Z,25.98
2022-12-03T02:48:15.167Z,26.30
2022-12-03T02:50:50.879Z,26.80
2022-12-03T02:53:21.191Z,25.48
2022-12-03T02:55:49.211Z,26.13
2022-12-03T02:58:16.917Z,28.38
2022-12-03T03:00:45.542Z,30.25
2022-12-03T03:03:13.378Z,30.40
2022-12-03T03:05:41.570Z,24.85
2022-12-03T03:08:09.949Z,30.58
2022-12-03T03:10:39.019Z,27.92
2022-12-03T03:13:13.890Z,27.50
2022-12-03T03:15:59.556Z,25.50
2022-12-03T03:18:26.669Z,28.65
2022-12-03T03:20:53.832Z,26.08
2022-12-03T03:23:23.497Z,25.67
2022-12-03T03:25:59.768Z,25.15
2022-12-03T03:28:28.604Z,24.60
2022-12-03T03:30:56.692Z,23.45
2022-12-03T03:33:23.777Z,24.10
2022-12-03T03:35:50.976Z,25.95
2022-12-03T03:38:20.793Z,27.33
2022-12-03T03:40:50.015Z,27.65
2022-12-03T03:43:17.293Z,25.98
2022-12-03T03:45:44.868Z,27.85
2022-12-03T03:48:13.109Z,26.00
2022-12-03T03:50:40.916Z,27.38
2022-12-03T03:53:08.332Z,28.45
2022-12-03T03:55:35.433Z,24.98
2022-12-03T03:58:02.517Z,25.88
2022-12-03T04:00:30.368Z,27.73
2022-12-03T04:02:57.385Z,26.30
2022-12-03T04:05:25.266Z,28.17
2022-12-03T04:07:52.521Z,26.38
2022-12-03T04:10:38.277Z,30.48
2022-12-03T04:13:05.893Z,26.25
2022-12-03T04:15:32.893Z,29.65
2022-12-03T04:18:18.592Z,27.58
2022-12-03T04:20:45.801Z,27.88
2022-12-03T04:23:13.646Z,31.40
2022-12-03T04:25:59.077Z,30.50
2022-12-03T04:28:44.533Z,27.63
2022-12-03T04:31:30.060Z,27.98
2022-12-03T04:34:15.283Z,26.30
2022-12-03T04:36:42.238Z,26.58
2022-12-03T04:39:09.184Z,27.13
2022-12-03T04:41:36.140Z,30.13
2022-12-03T04:44:21.369Z,30.10
2022-12-03T04:46:48.354Z,25.63
2022-12-03T04:49:15.364Z,27.50
2022-12-03T04:51:42.325Z,28.58
2022-12-03T04:54:09.282Z,27.15
2022-12-03T04:56:37.137Z,26.90
2022-12-03T04:59:04.588Z,27.08
2022-12-03T05:01:31.781Z,27.25
2022-12-03T05:03:58.879Z,27.92
2022-12-03T05:06:25.887Z,27.15
2022-12-03T05:08:52.916Z,26.08
2022-12-03T05:11:19.944Z,25.98
2022-12-03T05:13:47.983Z,29.55
2022-12-03T05:16:15.001Z,29.88
2022-12-03T05:18:41.981Z,28.73
2022-12-03T05:21:08.891Z,28.45
2022-12-03T05:23:35.879Z,29.17
2022-12-03T05:26:03.103Z,29.17
2022-12-03T05:28:30.080Z,28.13
2022-12-03T05:30:57.096Z,30.17
2022-12-03T05:33:24.152Z,28.67
2022-12-03T05:35:51.293Z,25.95
2022-12-03T05:38:18.275Z,28.08
2022-12-03T05:40:45.254Z,26.55
2022-12-03T05:43:12.180Z,29.70
2022-12-03T05:45:41.434Z,29.95
2022-12-03T05:48:10.901Z,31.75
2022-12-03T05:50:39.456Z,30.92
2022-12-03T05:53:18.349Z,30.65
2022-12-03T05:55:45.309Z,28.42
2022-12-03T05:58:12.544Z,28.05
2022-12-03T06:00:42.881Z,29.40
2022-12-03T06:03:10.661Z,31.55
2022-12-03T06:05:37.870Z,28.77
2022-12-03T06:08:05.024Z,26.70
2022-12-03T06:10:32.588Z,30.00
2022-12-03T06:12:59.571Z,31.90
2022-12-03T06:15:26.816Z,27.05
2022-12-03T06:17:53.850Z,26.83
2022-12-03T06:20:21.454Z,27.35
2022-12-03T06:22:49.361Z,29.65
2022-12-03T06:25:16.628Z,27.45
2022-12-03T06:27:44.501Z,28.92
2022-12-03T06:30:13.057Z,34.58
2022-12-03T06:32:40.454Z,29.75
2022-12-03T06:35:08.023Z,27.95
2022-12-03T06:37:34.991Z,30.52
2022-12-03T06:40:02.182Z,33.50
2022-12-03T06:42:29.208Z,28.15
2022-12-03T06:44:56.337Z,32.15
2022-12-03T06:47:23.595Z,29.02
2022-12-03T06:49:50.536Z,33.85
2022-12-03T06:52:17.557Z,27.88
2022-12-03T06:54:44.697Z,30.55
2022-12-03T06:57:12.433Z,29.38
2022-12-03T06:59:39.583Z,34.05
2022-12-03T07:02:07.039Z,32.28
2022-12-03T07:04:34.085Z,32.45
2022-12-03T07:07:01.052Z,28.85
2022-12-03T07:09:28.085Z,30.45
2022-12-03T07:11:55.086Z,27.95
2022-12-03T07:14:22.008Z,32.47
2022-12-03T07:16:48.991Z,30.92
2022-12-03T07:19:16.009Z,30.88
2022-12-03T07:21:42.953Z,30.98
2022-12-03T07:24:10.052Z,27.42
2022-12-03T07:26:37.114Z,31.73
2022-12-03T07:29:04.153Z,32.42
2022-12-03T07:31:31.347Z,30.60
2022-12-03T07:33:58.570Z,29.58
2022-12-03T07:36:25.633Z,29.70
2022-12-03T07:38:52.756Z,32.30
2022-12-03T07:41:19.768Z,32.53
2022-12-03T07:43:46.833Z,31.58
2022-12-03T07:46:14.831Z,30.50
2022-12-03T07:48:41.760Z,28.73
2022-12-03T07:51:14.305Z,29.73
2022-12-03T07:53:42.360Z,30.45
2022-12-03T07:56:09.226Z,32.55
2022-12-03T07:58:36.643Z,32.40
2022-12-03T08:01:03.853Z,29.17
2022-12-03T08:03:31.284Z,35.78
2022-12-03T08:05:58.259Z,30.05
2022-12-03T08:08:25.237Z,29.15
2022-12-03T08:10:52.169Z,36.15
2022-12-03T08:13:19.572Z,34.17
2022-12-03T08:15:46.835Z,32.45
2022-12-03T08:18:17.572Z,30.00
2022-12-03T08:20:46.582Z,32.58
2022-12-03T08:23:19.642Z,34.90
2022-12-03T08:25:46.768Z,31.80
2022-12-03T08:28:31.882Z,33.97
2022-12-03T08:31:20.508Z,30.90
2022-12-03T08:33:49.986Z,36.97
2022-12-03T08:36:23.468Z,32.72
2022-12-03T08:39:05.292Z,34.53
2022-12-03T08:41:50.847Z,33.53
2022-12-03T08:44:29.872Z,36.65
2022-12-03T08:46:56.789Z,34.90
2022-12-03T08:49:23.832Z,35.30
2022-12-03T08:51:57.013Z,37.60
2022-12-03T08:54:25.897Z,35.00
2022-12-03T08:56:54.738Z,30.48
2022-12-03T08:59:35.218Z,31.88
2022-12-03T09:02:02.510Z,33.90
2022-12-03T09:04:44.679Z,33.63
2022-12-03T09:07:11.780Z,33.97
2022-12-03T09:09:38.948Z,34.05
2022-12-03T09:12:06.240Z,33.33
2022-12-03T09:14:33.267Z,37.42
2022-12-03T09:17:00.313Z,39.05
2022-12-03T09:19:30.871Z,38.17
2022-12-03T09:21:57.933Z,40.15
2022-12-03T09:24:25.046Z,40.22
2022-12-03T09:26:52.220Z,36.65
2022-12-03T09:29:19.431Z,34.47
2022-12-03T09:31:46.763Z,36.88
2022-12-03T09:34:13.882Z,32.08
2022-12-03T09:36:40.932Z,36.83
2022-12-03T09:39:07.912Z,38.30
2022-12-03T09:41:35.306Z,37.45
2022-12-03T09:44:04.443Z,35.15
2022-12-03T09:46:32.459Z,39.85
2022-12-03T09:49:01.134Z,34.17
2022-12-03T09:51:32.833Z,37.97
2022-12-03T09:54:01.388Z,33.35
2022-12-03T09:56:28.452Z,35.30
2022-12-03T09:58:55.624Z,33.80
2022-12-03T10:01:25.824Z,33.63
2022-12-03T10:03:54.918Z,32.58
2022-12-03T10:06:23.763Z,30.38
2022-12-03T10:08:54.803Z,29.58
2022-12-03T10:11:24.430Z,33.63
2022-12-03T10:13:53.821Z,29.05
2022-12-03T10:16:21.764Z,28.33
2022-12-03T10:18:54.553Z,29.65
2022-12-03T10:21:32.103Z,30.98
2022-12-03T10:24:19.284Z,29.58
2022-12-03T10:26:47.980Z,32.63
2022-12-03T10:29:18.934Z,28.83
2022-12-03T10:31:54.212Z,31.92
2022-12-03T10:34:41.767Z,31.35
2022-12-03T10:37:14.581Z,29.30
2022-12-03T10:39:59.564Z,31.80
2022-12-03T10:42:32.616Z,29.92
2022-12-03T10:45:19.341Z,31.42
2022-12-03T10:48:17.865Z,31.92
2022-12-03T10:51:03.334Z,35.90
2022-12-03T10:53:33.777Z,30.85
2022-12-03T10:56:03.690Z,31.15
2022-12-03T10:58:35.981Z,32.58
2022-12-03T11:01:08.219Z,28.55
2022-12-03T11:03:36.753Z,28.05
2022-12-03T11:06:04.140Z,25.48
2022-12-03T11:08:36.930Z,29.13
2022-12-03T11:11:06.157Z,30.33
2022-12-03T11:13:32.997Z,31.58
2022-12-03T11:16:05.262Z,30.13
2022-12-03T11:18:38.194Z,28.83
2022-12-03T11:21:14.042Z,28.77
2022-12-03T11:29:04.954Z,28.63
2022-12-03T11:31:46.798Z,24.67
2022-12-03T11:34:20.363Z,25.40
2022-12-03T11:37:12.342Z,24.30
2022-12-03T11:39:48.228Z,25.48
2022-12-03T11:45:18.658Z,27.30
2022-12-03T11:48:13.844Z,23.40
2022-12-03T11:50:53.108Z,27.08
2022-12-03T11:53:25.949Z,26.52
2022-12-03T11:56:06.489Z,24.73
2022-12-03T11:58:35.593Z,24.35
2022-12-03T12:01:05.202Z,25.70
2022-12-03T12:03:52.652Z,23.58
2022-12-03T12:06:21.384Z,24.27
2022-12-03T12:08:51.285Z,23.52
2022-12-03T12:11:30.801Z,23.20
2022-12-03T12:13:59.080Z,23.83
2022-12-03T12:16:55.900Z,26.00
2022-12-03T12:19:31.685Z,31.88
2022-12-03T12:24:41.263Z,24.67
2022-12-03T12:27:10.893Z,25.55
2022-12-03T12:29:40.107Z,28.15
2022-12-03T12:32:17.687Z,23.92
2022-12-03T12:34:49.767Z,22.98
2022-12-03T12:37:28.379Z,25.55
2022-12-03T12:39:57.277Z,25.88
2022-12-03T12:42:32.987Z,24.17
2022-12-03T12:45:12.094Z,27.08
2022-12-03T12:47:43.669Z,27.27
2022-12-03T12:50:11.766Z,24.38
2022-12-03T12:52:53.071Z,26.27
2022-12-03T12:55:20.921Z,25.48
2022-12-03T12:57:48.068Z,24.90
2022-12-03T13:00:23.508Z,26.40
2022-12-03T13:02:51.935Z,27.23
2022-12-03T13:05:19.240Z,22.73
2022-12-03T13:07:46.565Z,28.52
2022-12-03T13:10:33.896Z,27.63
2022-12-03T13:13:23.368Z,26.48
2022-12-03T13:16:01.084Z,24.48
2022-12-03T13:18:55.432Z,27.77
2022-12-03T13:21:22.555Z,25.00
2022-12-03T13:23:52.601Z,25.98
2022-12-03T13:26:36.081Z,25.85
2022-12-03T13:29:18.770Z,25.20
2022-12-03T13:31:50.773Z,26.50
2022-12-03T13:34:23.342Z,21.75
2022-12-03T13:37:09.234Z,22.40
2022-12-03T13:39:41.069Z,28.40
2022-12-03T13:42:38.315Z,23.25
2022-12-03T13:45:17.152Z,25.38
2022-12-03T13:47:45.248Z,23.30
2022-12-03T13:50:46.090Z,21.58
2022-12-03T13:53:28.101Z,24.63
2022-12-03T13:56:04.516Z,22.92
2022-12-03T13:58:31.429Z,24.35
2022-12-03T14:00:58.424Z,25.23
2022-12-03T14:03:25.550Z,22.80
2022-12-03T14:05:55.464Z,29.67
2022-12-03T14:08:22.460Z,18.70
2022-12-03T14:10:49.490Z,20.75
2022-12-03T14:13:16.484Z,23.35
2022-12-03T14:15:43.476Z,18.30
2022-12-03T14:18:10.451Z,20.80
2022-12-03T14:20:37.389Z,20.02
2022-12-03T14:23:04.495Z,16.90
2022-12-03T14:25:31.507Z,21.42
2022-12-03T14:28:00.728Z,18.38
2022-12-03T14:30:27.724Z,17.95
2022-12-03T14:32:54.624Z,18.02
2022-12-03T14:35:21.583Z,18.75
2022-12-03T14:37:48.491Z,19.15
2022-12-03T14:40:19.736Z,14.93
2022-12-03T14:42:48.468Z,15.57
2022-12-03T14:45:15.493Z,17.05
2022-12-03T14:47:42.633Z,15.10
2022-12-03T14:50:14.166Z,16.63
2022-12-03T14:52:41.393Z,17.63
2022-12-03T14:55:09.100Z,15.82
2022-12-03T14:57:37.340Z,16.10
2022-12-03T15:00:06.731Z,14.43
2022-12-03T15:02:33.814Z,15.15
2022-12-03T15:05:00.847Z,16.52
2022-12-03T15:07:29.044Z,17.08
2022-12-03T15:09:56.485Z,16.23
2022-12-03T15:12:23.851Z,13.88
2022-12-03T15:14:50.847Z,17.08
2022-12-03T15:17:25.474Z,19.33
2022-12-03T15:19:56.784Z,18.75
2022-12-03T15:22:23.843Z,17.50
2022-12-03T15:24:50.847Z,16.63
2022-12-03T15:27:17.856Z,17.65
2022-12-03T15:29:44.891Z,19.83
2022-12-03T15:32:11.936Z,20.92
2022-12-03T15:34:38.900Z,21.30
2022-12-03T15:37:05.932Z,20.65
2022-12-03T15:39:33.309Z,20.08
2022-12-03T15:42:00.390Z,20.60
2022-12-03T15:44:27.484Z,19.90
2022-12-03T15:46:54.443Z,18.75
2022-12-03T15:49:21.534Z,20.65
2022-12-03T15:51:48.460Z,21.58
2022-12-03T15:54:15.475Z,22.48
2022-12-03T15:56:42.581Z,22.77
2022-12-03T15:59:09.633Z,22.23
2022-12-03T16:01:36.750Z,22.75
2022-12-03T16:04:03.865Z,20.65
2022-12-03T16:06:30.886Z,24.15
2022-12-03T16:08:57.916Z,24.23
2022-12-03T16:11:24.923Z,24.08
2022-12-03T16:13:51.949Z,21.77
2022-12-03T16:16:19.053Z,21.67
2022-12-03T16:18:46.063Z,21.92
2022-12-03T16:21:13.126Z,21.38
2022-12-03T16:23:40.178Z,19.83
2022-12-03T16:26:07.148Z,20.80
2022-12-03T16:28:34.141Z,19.02
2022-12-03T16:31:01.272Z,19.23
2022-12-03T16:33:28.398Z,19.58
2022-12-03T16:35:55.434Z,17.73
2022-12-03T16:38:22.457Z,19.38
2022-12-03T16:40:49.460Z,18.85
2022-12-03T16:43:16.669Z,17.30
2022-12-03T16:46:02.954Z,20.70
2022-12-03T16:48:30.377Z,19.25
2022-12-03T16:50:57.392Z,17.42
2022-12-03T16:53:24.420Z,16.10
2022-12-03T16:55:51.333Z,18.20
2022-12-03T16:58:21.192Z,16.67
2022-12-03T17:00:48.919Z,18.33
2022-12-03T17:03:17.869Z,18.58
2022-12-03T17:05:45.857Z,21.67
2022-12-03T17:08:13.668Z,20.50
2022-12-03T17:10:40.783Z,18.98
2022-12-03T17:13:09.650Z,18.63
2022-12-03T17:15:37.699Z,20.42
2022-12-03T17:18:04.977Z,17.65
2022-12-03T17:20:32.741Z,19.70
2022-12-03T17:23:00.173Z,20.65
2022-12-03T17:25:27.812Z,19.52
2022-12-03T17:27:54.998Z,20.80
2022-12-03T17:30:22.200Z,19.70
2022-12-03T17:32:50.467Z,18.95
2022-12-03T17:35:18.873Z,21.10
2022-12-03T17:37:46.205Z,20.92
2022-12-03T17:40:14.449Z,22.48
2022-12-03T17:42:41.497Z,21.67
2022-12-03T17:45:09.052Z,20.48
2022-12-03T17:47:36.021Z,20.13
2022-12-03T17:50:03.328Z,20.05
2022-12-03T17:52:30.280Z,19.90
2022-12-03T17:55:21.099Z,21.13
2022-12-03T17:57:44.276Z,19.90
2022-12-03T18:00:11.831Z,25.42
2022-12-03T18:02:42.387Z,23.33
2022-12-03T18:05:10.221Z,23.80
2022-12-03T18:07:37.483Z,24.52
2022-12-03T18:10:05.084Z,19.45
2022-12-03T18:12:32.374Z,19.45
2022-12-03T18:14:59.490Z,25.13
2022-12-03T18:17:26.609Z,19.02
2022-12-03T18:19:53.941Z,19.75
2022-12-03T18:22:21.380Z,23.30
2022-12-03T18:24:51.848Z,22.60
2022-12-03T18:27:21.347Z,19.58
2022-12-03T18:29:48.527Z,22.88
2022-12-03T18:32:28.349Z,25.38
2022-12-03T18:34:56.771Z,21.63
2022-12-03T18:37:27.567Z,17.15
2022-12-03T18:39:56.396Z,18.35
2022-12-03T18:42:23.862Z,21.38
2022-12-03T18:44:53.517Z,18.75
2022-12-03T18:47:23.382Z,20.23
2022-12-03T18:49:51.189Z,17.38
2022-12-03T18:52:20.929Z,19.58
2022-12-03T18:54:48.259Z,18.67
2022-12-03T18:57:15.596Z,16.52
2022-12-03T18:59:42.877Z,16.25
2022-12-03T19:02:38.411Z,14.75
2022-12-03T19:05:03.948Z,15.15
2022-12-03T19:07:30.985Z,19.55
2022-12-03T19:09:58.344Z,14.20
2022-12-03T19:12:25.385Z,18.35
2022-12-03T19:14:52.390Z,16.63
2022-12-03T19:17:19.438Z,17.00
2022-12-03T19:19:46.590Z,15.82
2022-12-03T19:22:13.603Z,19.92
2022-12-03T19:24:40.593Z,18.10
2022-12-03T19:27:07.520Z,16.40
2022-12-03T19:29:34.589Z,16.25
2022-12-03T19:32:01.632Z,17.15
2022-12-03T19:34:28.956Z,16.33
2022-12-03T19:36:55.976Z,18.55
2022-12-03T19:39:23.256Z,92.38
2022-12-03T19:41:50.360Z,16.33
2022-12-03T19:44:18.601Z,17.50
2022-12-03T19:46:45.730Z,18.05
2022-12-03T19:49:12.769Z,19.98
2022-12-03T19:51:39.789Z,17.55
2022-12-03T19:54:08.151Z,15.68
2022-12-03T19:56:35.513Z,16.85
2022-12-03T19:59:03.143Z,17.27
2022-12-03T20:01:32.617Z,20.08
2022-12-03T20:04:01.216Z,19.30
2022-12-03T20:06:30.813Z,20.73
2022-12-03T20:09:01.237Z,17.17
2022-12-03T20:11:31.145Z,19.83
2022-12-03T20:14:04.300Z,21.35
2022-12-03T20:16:31.578Z,22.33
2022-12-03T20:19:00.951Z,20.02
2022-12-03T20:21:31.640Z,20.10
2022-12-03T20:23:58.925Z,23.13
2022-12-03T20:26:27.400Z,19.35
2022-12-03T20:28:55.422Z,20.88
2022-12-03T20:31:25.518Z,20.30
2022-12-03T20:33:58.323Z,22.95
2022-12-03T20:36:26.066Z,21.48
2022-12-03T20:38:57.696Z,22.67
2022-12-03T20:41:24.892Z,23.05
2022-12-03T20:43:53.099Z,24.33
2022-12-03T20:46:22.815Z,21.90
2022-12-03T20:48:49.876Z,22.58
2022-12-03T20:51:19.455Z,21.92
2022-12-03T20:53:47.142Z,23.10
2022-12-03T20:56:22.209Z,20.52
2022-12-03T20:58:49.900Z,20.50
2022-12-03T21:01:20.051Z,20.80
2022-12-03T21:03:48.390Z,23.63
2022-12-03T21:06:16.035Z,20.15
2022-12-03T21:08:44.404Z,32.83
2022-12-03T21:11:20.329Z,25.67
2022-12-03T21:13:47.880Z,22.20
2022-12-03T21:16:17.698Z,24.17
2022-12-03T21:18:45.115Z,20.88
2022-12-03T21:21:13.602Z,20.67
2022-12-03T21:23:40.766Z,19.88
2022-12-03T21:26:11.329Z,21.17
2022-12-03T21:28:40.148Z,21.35
2022-12-03T21:31:10.743Z,21.98
2022-12-03T21:33:38.801Z,24.42
2022-12-03T21:36:06.770Z,25.98
2022-12-03T21:38:34.681Z,22.17
2022-12-03T21:41:02.195Z,20.15
2022-12-03T21:43:30.066Z,22.55
2022-12-03T21:45:57.018Z,22.35
2022-12-03T21:48:39.309Z,23.83
2022-12-03T21:51:08.065Z,21.23
2022-12-03T21:53:41.912Z,23.92
2022-12-03T21:56:15.627Z,24.23
2022-12-03T21:58:43.996Z,19.85
2022-12-03T22:01:15.278Z,20.38
2022-12-03T22:03:42.421Z,20.73
2022-12-03T22:06:10.373Z,18.70
2022-12-03T22:08:37.889Z,19.17
2022-12-03T22:11:11.213Z,22.73
2022-12-03T22:13:39.031Z,21.88
2022-12-03T22:16:08.813Z,22.13
2022-12-03T22:18:36.260Z,22.40
2022-12-03T22:21:08.806Z,21.58
2022-12-03T22:23:35.819Z,19.60
2022-12-03T22:26:05.839Z,19.60
2022-12-03T22:28:33.818Z,21.42
2022-12-03T22:31:10.498Z,19.33
2022-12-03T22:33:38.108Z,20.55
2022-12-03T22:36:16.406Z,45.22
2022-12-03T22:38:47.638Z,21.35
2022-12-03T22:41:15.755Z,20.13
2022-12-03T22:43:43.020Z,19.52
2022-12-03T22:46:12.373Z,18.45
2022-12-03T22:48:41.459Z,17.23
2022-12-03T22:51:25.229Z,18.13
2022-12-03T22:53:59.712Z,18.52
2022-12-03T22:56:28.745Z,19.95
2022-12-03T22:58:56.051Z,17.95
2022-12-03T23:01:31.849Z,18.67
2022-12-03T23:06:27.465Z,21.00
2022-12-03T23:08:55.155Z,20.10
2022-12-03T23:11:22.849Z,22.63
2022-12-03T23:13:49.954Z,19.73
2022-12-03T23:16:20.724Z,20.35
2022-12-03T23:18:48.062Z,17.50
2022-12-03T23:21:17.635Z,16.67
2022-12-03T23:23:44.856Z,16.40
2022-12-03T23:26:13.704Z,17.75
2022-12-03T23:28:42.132Z,17.98
2022-12-03T23:31:22.966Z,19.45
2022-12-03T23:33:51.302Z,19.55
2022-12-03T23:36:19.370Z,18.63
2022-12-03T23:38:46.600Z,18.70
2022-12-03T23:41:16.142Z,18.85
2022-12-03T23:43:43.197Z,18.98
2022-12-03T23:46:19.826Z,16.77
2022-12-03T23:48:47.042Z,19.08
2022-12-03T23:51:16.713Z,18.80
2022-12-03T23:53:44.783Z,18.65
2022-12-03T23:56:20.542Z,17.08
2022-12-03T23:58:47.973Z,15.75
